• Join FlightAware (Why Join?)
  • Login
  • US Flag 
01:49AM EDT


 

Airport Tracker/Info


-or-


 

Live Flight TrackerFlight Track Log ✈ EJA951 ✈ 05-Nov-2013 ✈ KBNA - KFLL

Flight Track Log - Related Links

Times and Time Zones

All times are in EST time to prevent confusion due to time zone crossing. See the EJA951 flight status page for this flight to view local times or setup timezone preferences in your user account.

Time Position Orientation Groundspeed Altitude Reporting Facility
EST Latitude Longitude Course Direction KTS MPH feet Rate Location/Type
04:27PM 36.1000 -86.6833 161° South 172 198 1,200  Level Nashville TRACON
04:30PM 35.9669 -86.6256 161° South 235 270 41,000 3,420 Climbing Memphis Center
04:31PM 35.8881 -86.5728 152° Southeast 292 336 12,500 -13,320 Descending Memphis Center
04:32PM 35.7925 -86.5106 152° Southeast 360 414 14,400 1,320 Climbing Memphis Center
04:33PM 35.6883 -86.4539 156° South 396 456 15,200 1,500 Climbing Memphis Center
04:34PM 35.5836 -86.4333 171° South 396 456 17,400 1,440 Climbing Memphis Center
04:36PM 35.3664 -86.3844 170° South 380 437 19,800 1,260 Climbing Atlanta Center
04:37PM 35.2650 -86.3306 157° South 397 457 21,400 1,260 Climbing Atlanta Center
04:38PM 35.1597 -86.2692 155° Southeast 411 473 22,400 1,020 Climbing Atlanta Center
04:39PM 35.0522 -86.2106 156° South 417 480 23,500 1,260 Climbing Atlanta Center
04:40PM 34.9406 -86.1594 159° South 423 487 25,000 1,200 Climbing Atlanta Center
04:41PM 34.8164 -86.1058 160° South 428 493 26,000 960 Climbing Atlanta Center
04:42PM 34.7003 -86.0447 157° South 435 501 27,000 480 Climbing Atlanta Center
04:43PM 34.5956 -85.9439 142° Southeast 450 518 27,000  Level Atlanta Center
04:44PM 34.4886 -85.8381 141° Southeast 479 551 27,000  Level Atlanta Center
04:45PM 34.3753 -85.7325 142° Southeast 505 581 27,000  Level Atlanta Center
04:46PM 34.2642 -85.6272 142° Southeast 510 587 27,000 120 Level Atlanta Center
04:47PM 34.1442 -85.5297 146° Southeast 518 596 27,300 840 Climbing Atlanta Center
04:48PM 34.0175 -85.4825 163° South 484 557 28,700 1,440 Climbing Atlanta Center
04:49PM 33.8906 -85.4403 165° South 474 545 30,200 1,200 Climbing Atlanta Center
04:50PM 33.7617 -85.4006 166° South 468 539 31,200 900 Climbing Atlanta Center
04:51PM 33.6453 -85.3589 163° South 474 545 32,100 900 Climbing Atlanta Center
04:52PM 33.5142 -85.3194 166° South 474 545 33,100 1,020 Climbing Atlanta Center
04:53PM 33.3811 -85.2778 165° South 485 558 34,200 1,260 Climbing Atlanta Center
04:54PM 33.2519 -85.2336 164° South 490 564 35,700 1,500 Climbing Atlanta Center
04:55PM 33.1208 -85.1922 165° South 484 557 37,200 1,500 Climbing Atlanta Center
04:56PM 32.9897 -85.1508 165° South 491 565 38,700 1,500 Climbing Atlanta Center
04:57PM 32.8650 -85.1097 165° South 480 552 40,200 1,140 Climbing Atlanta Center
04:58PM 32.7339 -85.0611 163° South 485 558 41,000 360 Climbing Atlanta Center
04:59PM 32.5944 -85.0128 164° South 498 573 41,000  Level Atlanta Center
05:00PM 32.4467 -84.9644 165° South 503 579 41,000  Level Atlanta Center
05:01PM 32.3111 -84.9211 165° South 510 587 41,000  Level Atlanta Center
05:02PM 32.1883 -84.8856 166° South 505 581 41,000  Level Atlanta Center
05:03PM 32.0528 -84.8450 166° South 505 581 41,000  Level Atlanta Center
05:04PM 31.8269 -84.7731 165° South 522 601 41,000  Level Jacksonville Center
05:05PM 31.6919 -84.7286 164° South 512 589 41,000  Level Jacksonville Center
05:06PM 31.5547 -84.6869 165° South 507 583 41,000  Level Jacksonville Center
05:07PM 31.4300 -84.6506 166° South 513 590 41,000  Level Jacksonville Center
05:08PM 31.2969 -84.5994 162° South 508 585 41,000  Level Jacksonville Center
05:09PM 31.1747 -84.5194 151° Southeast 508 585 41,000  Level Jacksonville Center
05:10PM 31.0506 -84.4372 150° Southeast 503 579 41,000  Level Jacksonville Center
05:11PM 30.9242 -84.3600 152° Southeast 508 585 41,000  Level Jacksonville Center
05:12PM 30.8019 -84.2783 150° Southeast 508 585 41,000  Level Jacksonville Center
05:13PM 30.6753 -84.1992 152° Southeast 508 585 41,000  Level Jacksonville Center
05:14PM 30.5447 -84.1156 151° Southeast 501 577 41,000  Level Jacksonville Center
05:15PM 30.4222 -84.0344 150° Southeast 501 577 41,000  Level Jacksonville Center
05:16PM 30.2975 -83.9561 152° Southeast 496 571 41,000  Level Jacksonville Center
05:17PM 30.1731 -83.8800 152° Southeast 496 571 41,000  Level Jacksonville Center
05:18PM 30.0483 -83.7997 151° Southeast 502 578 41,000  Level Jacksonville Center
05:19PM 29.9236 -83.7217 152° Southeast 502 578 41,000  Level Jacksonville Center
05:20PM 29.8008 -83.6467 152° Southeast 502 578 41,000  Level Jacksonville Center
05:21PM 29.6761 -83.5692 152° Southeast 508 585 41,000  Level Jacksonville Center
05:22PM 29.5511 -83.4917 152° Southeast 508 585 41,000  Level Jacksonville Center
05:23PM 29.4261 -83.4147 152° Southeast 508 585 41,000  Level Jacksonville Center
05:24PM 29.3053 -83.3378 151° Southeast 508 585 41,000  Level Jacksonville Center
05:25PM 29.1950 -83.2683 151° Southeast 501 577 41,000  Level Jacksonville Center
05:26PM 29.0719 -83.1919 152° Southeast 501 577 41,000  Level Jacksonville Center
05:27PM 28.9492 -83.1181 152° Southeast 496 571 41,000  Level Jacksonville Center
05:28PM 28.8261 -83.0419 152° Southeast 496 571 41,000  Level Jacksonville Center
05:29PM 28.7031 -82.9658 152° Southeast 496 571 41,000  Level Jacksonville Center
05:30PM 28.5819 -82.8925 152° Southeast 496 571 41,000  Level Jacksonville Center
05:31PM 28.4608 -82.8194 152° Southeast 496 571 41,000  Level Jacksonville Center
05:33PM 28.2550 -82.6939 152° Southeast 519 597 41,000  Level Miami Center
05:34PM 28.1308 -82.6192 152° Southeast 519 597 41,000  Level Miami Center
05:35PM 28.0189 -82.5525 152° Southeast 519 597 41,000  Level Miami Center
05:36PM 27.8897 -82.4944 158° South 512 589 41,000 -300 Level Miami Center
05:37PM 27.7514 -82.5108 186° South 492 566 40,400 -1,200 Descending Miami Center
05:38PM 27.6208 -82.5889 208° Southwest 515 593 38,700 -1,980 Descending Miami Center
05:39PM 27.4797 -82.6753 209° Southwest 541 623 36,500 -2,100 Descending Miami Center
05:40PM 27.3514 -82.7553 209° Southwest 541 623 34,500 -1,920 Descending Miami Center
05:41PM 27.2261 -82.7583 181° South 520 598 32,700 -1,920 Descending Miami Center
05:42PM 27.1192 -82.6642 142° Southeast 445 512 30,700 -1,980 Descending Miami Center
05:43PM 27.0392 -82.5297 124° Southeast 447 514 28,800 -1,380 Descending Miami Center
05:44PM 26.9628 -82.4003 123° Southeast 467 537 28,000 -420 Descending Miami Center
05:45PM 26.8903 -82.2733 123° Southeast 487 560 28,000 -120 Level Miami Center
05:46PM 26.8136 -82.1467 124° Southeast 492 566 27,800 -720 Descending Miami Center
05:47PM 26.7389 -82.0175 123° Southeast 487 560 26,600 -1,380 Descending Miami Center
05:48PM 26.6697 -81.9031 124° Southeast 479 551 25,100 -1,920 Descending Miami Center
05:49PM 26.6064 -81.8006 125° Southeast 439 505 22,800 -2,220 Descending Miami Center
05:50PM 26.5453 -81.6936 123° Southeast 416 479 20,700 -2,100 Descending Miami Center
05:51PM 26.4900 -81.6008 124° Southeast 409 471 18,600 -1,860 Descending Miami Center
05:52PM 26.4225 -81.4914 125° Southeast 392 451 17,000 -1,620 Descending Miami Center
05:53PM 26.3611 -81.3892 124° Southeast 382 440 15,400 -1,800 Descending Miami Center
05:54PM 26.2975 -81.2850 124° Southeast 382 440 13,400 -1,860 Descending Miami Center
05:55PM 26.2417 -81.1925 124° Southeast 382 440 11,700 -1,560 Descending Miami Center
05:56PM 26.1900 -81.1075 124° Southeast 360 414 10,300 -1,440 Descending Miami Center
05:56PM 26.1756 -81.0931 138° Southeast 294 338 10,000 -1,200 Descending Miami Center
05:57PM 26.1458 -81.0433 124° Southeast 275 316 9,200 -1,200 Descending Miami Center
05:57PM 26.1461 -81.0364 87° East 297 342 9,100 -1,320 Descending Miami Center
05:58PM 26.1039 -80.9703 125° Southeast 270 311 7,900 -1,140 Descending Miami Center
05:58PM 26.1061 -80.9725 318° Northwest 284 327 8,000 -1,680 Climbing Miami Center
05:59PM 26.0833 -80.8908 107° East 253 291 6,200 -1,740 Descending Miami Center
05:59PM 26.0872 -80.8956 313° West 266 306 6,300 -300 Climbing Miami Center
06:00PM 26.0767 -80.8306 100° East 252 290 6,000 -300 Descending Miami Center
06:00PM 26.0789 -80.8189 78° East 254 292 6,000 -840 Level Miami Center
06:01PM 26.0769 -80.7356 91° East 249 287 5,000 -540 Descending Miami Center
06:02PM 26.0747 -80.6594 92° East 248 285 5,000  Level Miami Center
06:03PM 26.0744 -80.5969 90° East 241 277 5,000  Level Miami Center
06:03PM 26.0767 -80.5922 62° Northeast 242 278 5,000  Level Miami Center
06:04PM 26.0761 -80.5228 90° East 240 276 5,000  Level Miami Center
06:04PM 26.0783 -80.5183 61° Northeast 237 273 5,000 -240 Level Miami Center
06:05PM 26.0756 -80.4606 93° East 176 203 4,800 -300 Descending Miami Center
06:05PM 26.0800 -80.4558 44° Northeast 221 254 4,700 -840 Descending Miami Center
06:06PM 26.0750 -80.4072 97° East 162 186 4,000 -840 Descending Miami Center
06:06PM 26.0792 -80.4050 26° Northeast 187 215 3,900 -900 Descending Miami Center
06:07PM 26.0742 -80.3494 96° East 170 196 3,000 -840 Descending Miami Center
06:08PM 26.0775 -80.3033 85° East 160 184 2,300 -720 Descending Miami Center
06:09PM 26.0744 -80.2547 94° East 161 185 1,600 -660 Descending Miami Center
06:10PM 26.0753 -80.2153 89° East 110 127 1,000 -600 Descending Miami Center
06:12PM 26.0667 -80.1500 180° South  Level FlightAware Approximate
06:19PM 26.0726 -80.1527 180° South  Level Estimated